Time;durP1;ratioP1;P1;durP2;ratioP2;P2;SDS_P1;SDS_P2;PMS_P1;PMS_P2;Temp;Humidity;BMP_temperature;BMP_pressure;BME280_temperature;BME280_humidity;BME280_pressure;Samples;Min_cycle;Max_cycle;Signal;HPM_P1;HPM_P2
2023/05/24 04:22:34;;;;;;;2.17;1.50;;;;;;;11.60;78.45;100632.94;5109864;27;20327;-67
2023/05/24 04:25:00;;;;;;;3.45;1.60;;;;;;;11.67;78.31;100632.09;5108636;28;20454;-66
2023/05/24 04:27:26;;;;;;;1.92;1.38;;;;;;;11.68;78.02;100630.28;5108534;28;20044;-67
2023/05/24 04:29:52;;;;;;;3.92;1.92;;;;;;;11.72;77.28;100636.09;5108098;28;20407;-68
2023/05/24 04:32:18;;;;;;;3.33;1.88;;;;;;;11.71;77.26;100632.59;5108476;28;20494;-67
2023/05/24 04:34:45;;;;;;;3.90;1.77;;;;;;;11.69;77.04;100637.28;5108456;28;20123;-65
2023/05/24 04:37:12;;;;;;;4.15;1.80;;;;;;;11.78;76.82;100632.72;5108290;28;20058;-65
2023/05/24 04:39:39;;;;;;;6.53;2.33;;;;;;;11.74;76.45;100634.09;5107959;28;20492;-65
2023/05/24 04:42:05;;;;;;;3.58;2.10;;;;;;;11.66;75.65;100635.75;5109580;28;20489;-65
2023/05/24 04:44:31;;;;;;;4.65;2.08;;;;;;;11.53;76.19;100639.97;5109446;28;20054;-65
2023/05/24 04:46:56;;;;;;;3.75;2.65;;;;;;;11.55;76.97;100638.81;5109465;28;20499;-65
2023/05/24 04:49:22;;;;;;;4.28;2.22;;;;;;;11.56;76.73;100643.13;5109215;28;20119;-64
2023/05/24 04:51:47;;;;;;;4.38;2.08;;;;;;;11.57;76.38;100646.63;5109381;28;20446;-65
2023/05/24 04:54:13;;;;;;;6.28;2.47;;;;;;;11.64;75.90;100643.09;5109241;28;20071;-67
2023/05/24 04:56:38;;;;;;;2.95;1.50;;;;;;;11.58;76.16;100646.44;5109100;28;20040;-64
2023/05/24 04:59:05;;;;;;;3.30;1.83;;;;;;;11.66;75.74;100650.94;5108876;28;20047;-65
2023/05/24 05:01:31;;;;;;;3.42;2.03;;;;;;;11.68;75.58;100652.44;5109034;28;20082;-65
2023/05/24 05:03:57;;;;;;;2.75;1.73;;;;;;;11.70;75.80;100646.94;5109117;28;20047;-66
2023/05/24 05:06:22;;;;;;;6.80;1.90;;;;;;;11.69;76.03;100647.94;5109021;28;20027;-66
2023/05/24 05:08:47;;;;;;;2.50;1.80;;;;;;;11.51;76.42;100649.97;5108736;28;20681;-65
2023/05/24 05:11:13;;;;;;;3.13;1.65;;;;;;;11.61;76.34;100651.47;5109040;28;20035;-65
2023/05/24 05:13:39;;;;;;;3.58;1.60;;;;;;;11.55;76.90;100653.97;5108832;28;20031;-66
2023/05/24 05:16:04;;;;;;;3.45;1.50;;;;;;;11.59;76.71;100658.78;5108854;28;20123;-66
2023/05/24 05:18:30;;;;;;;3.47;1.45;;;;;;;11.58;76.88;100656.28;5108483;28;20036;-66
2023/05/24 05:20:56;;;;;;;2.60;1.42;;;;;;;11.52;77.29;100657.81;5108688;28;20555;-65
2023/05/24 05:23:22;;;;;;;2.45;1.60;;;;;;;11.55;77.17;100665.47;5107463;28;20134;-65
2023/05/24 05:25:47;;;;;;;7.47;2.30;;;;;;;11.55;77.55;100657.47;5090621;28;20127;-65
2023/05/24 05:28:13;;;;;;;3.47;1.70;;;;;;;11.60;77.62;100655.13;5108589;28;20119;-64
2023/05/24 05:30:38;;;;;;;3.03;1.50;;;;;;;11.68;78.57;100651.63;5108423;28;20027;-69
2023/05/24 05:33:04;;;;;;;4.00;1.58;;;;;;;11.60;78.40;100648.94;5099782;28;20054;-65
2023/05/24 05:35:31;;;;;;;3.08;1.77;;;;;;;11.64;78.21;100642.28;5091602;28;20040;-66
2023/05/24 05:37:57;;;;;;;4.50;2.10;;;;;;;11.64;78.28;100645.78;5075419;28;20170;-64
2023/05/24 05:40:22;;;;;;;5.50;1.67;;;;;;;11.66;78.27;100643.75;5074208;28;20094;-65
2023/05/24 05:42:48;;;;;;;4.13;1.25;;;;;;;11.62;78.14;100642.44;5074444;28;20453;-65
2023/05/24 05:45:15;;;;;;;4.25;1.80;;;;;;;11.56;78.71;100637.78;5074448;28;20039;-65
2023/05/24 05:47:40;;;;;;;2.40;1.50;;;;;;;11.66;78.59;100641.09;5074461;28;20044;-66
2023/05/24 05:50:06;;;;;;;1.67;1.48;;;;;;;11.69;78.60;100643.44;5074126;28;20086;-65
2023/05/24 05:52:32;;;;;;;2.78;1.92;;;;;;;11.66;78.84;100642.94;5093122;28;20040;-65
2023/05/24 05:54:59;;;;;;;3.78;1.80;;;;;;;11.75;79.09;100636.59;5094611;28;20134;-65
2023/05/24 05:57:24;;;;;;;2.65;1.67;;;;;;;11.64;77.68;100637.78;5094383;28;20079;-66
2023/05/24 05:59:50;;;;;;;5.57;1.90;;;;;;;11.66;78.11;100646.44;5094445;28;20109;-66
2023/05/24 06:02:17;;;;;;;1.77;1.60;;;;;;;11.70;77.92;100641.59;5094405;28;20032;-65
2023/05/24 06:04:44;;;;;;;2.00;1.55;;;;;;;11.66;78.06;100649.09;5094401;28;20044;-65
2023/05/24 06:07:09;;;;;;;5.18;1.70;;;;;;;11.73;79.03;100651.09;5094323;28;20118;-65
2023/05/24 06:09:35;;;;;;;3.47;1.77;;;;;;;11.73;77.54;100648.41;5094050;28;20036;-65
2023/05/24 06:12:00;;;;;;;3.50;1.90;;;;;;;11.70;77.38;100654.94;5094248;28;20484;-64
2023/05/24 06:14:25;;;;;;;3.47;1.65;;;;;;;11.71;75.23;100658.44;5094227;28;20068;-65
2023/05/24 06:16:53;;;;;;;3.05;1.80;;;;;;;11.88;75.05;100652.09;5094159;28;20101;-65
2023/05/24 06:19:19;;;;;;;3.97;2.28;;;;;;;11.88;75.12;100660.09;5093888;28;20122;-65
2023/05/24 06:21:46;;;;;;;4.63;1.40;;;;;;;11.90;74.64;100661.59;5093999;28;20447;-67
2023/05/24 06:24:20;;;;;;;2.67;1.52;;;;;;;11.91;74.75;100662.41;5094079;28;20028;-64
2023/05/24 06:26:51;;;;;;;4.35;2.30;;;;;;;11.90;75.52;100672.25;5093963;28;20039;-65
2023/05/24 06:29:21;;;;;;;2.45;1.40;;;;;;;11.96;74.55;100676.09;5093687;28;20036;-66
2023/05/24 06:31:47;;;;;;;1.98;1.60;;;;;;;11.89;74.38;100665.25;5089925;28;20420;-65
2023/05/24 06:34:17;;;;;;;4.60;2.10;;;;;;;11.95;74.80;100677.09;5081814;28;20033;-66
2023/05/24 06:36:45;;;;;;;3.05;2.10;;;;;;;11.86;74.72;100683.44;5081606;28;20405;-66
2023/05/24 06:39:14;;;;;;;3.75;1.67;;;;;;;11.80;74.31;100681.41;5080098;28;20039;-65
2023/05/24 06:41:41;;;;;;;2.47;1.20;;;;;;;12.00;74.42;100682.75;5084713;28;20537;-65
2023/05/24 06:44:07;;;;;;;5.90;1.63;;;;;;;11.88;75.42;100678.78;5082000;28;20028;-65
2023/05/24 06:46:33;;;;;;;9.02;1.90;;;;;;;12.02;73.88;100686.09;5081148;28;20444;-65
2023/05/24 06:48:58;;;;;;;3.50;1.70;;;;;;;11.97;74.31;100693.75;5081610;28;20118;-66
2023/05/24 06:51:24;;;;;;;1.98;1.27;;;;;;;12.05;74.63;100679.56;5088606;28;20586;-66
2023/05/24 06:53:49;;;;;;;5.35;1.73;;;;;;;12.00;74.93;100685.44;5081810;28;20516;-66
2023/05/24 06:56:15;;;;;;;2.15;1.40;;;;;;;12.07;75.02;100680.22;5073095;28;20090;-66
2023/05/24 06:58:40;;;;;;;1.98;1.70;;;;;;;12.17;74.43;100686.19;5072818;28;20078;-66
2023/05/24 07:01:06;;;;;;;3.80;1.70;;;;;;;12.27;74.22;100699.34;5073053;28;20394;-67
2023/05/24 07:03:31;;;;;;;4.43;1.70;;;;;;;12.39;73.79;100697.97;5073095;28;20040;-64
2023/05/24 07:05:57;;;;;;;6.20;2.38;;;;;;;12.48;72.93;100699.59;5072972;28;20494;-65
2023/05/24 07:08:24;;;;;;;3.60;1.63;;;;;;;12.58;72.86;100702.84;5072805;28;20044;-66
2023/05/24 07:10:50;;;;;;;2.53;1.93;;;;;;;12.62;70.65;100701.50;5072849;28;20035;-65
2023/05/24 07:13:15;;;;;;;5.03;1.65;;;;;;;12.71;70.15;100695.13;5072913;28;20478;-65
2023/05/24 07:15:41;;;;;;;5.13;1.70;;;;;;;12.58;69.30;100705.53;5072721;28;20049;-66
2023/05/24 07:18:07;;;;;;;3.30;1.75;;;;;;;12.67;70.25;100707.16;5072733;28;20032;-66
2023/05/24 07:20:32;;;;;;;8.13;1.42;;;;;;;12.65;70.44;100711.00;5072108;28;20033;-66
2023/05/24 07:22:59;;;;;;;2.08;1.50;;;;;;;12.74;71.15;100716.13;5072664;28;20063;-66
2023/05/24 07:25:24;;;;;;;3.00;1.67;;;;;;;12.87;70.76;100718.25;5072439;28;20040;-66
2023/05/24 07:27:50;;;;;;;4.30;1.70;;;;;;;13.08;70.02;100717.59;5072551;28;20032;-65
2023/05/24 07:30:15;;;;;;;3.25;1.63;;;;;;;13.11;68.57;100724.44;5072264;28;20044;-67
2023/05/24 07:32:41;;;;;;;2.80;1.50;;;;;;;12.88;69.46;100716.41;5072538;28;20551;-65
2023/05/24 07:35:07;;;;;;;4.93;1.38;;;;;;;12.91;69.28;100718.69;5072454;28;20090;-65
2023/05/24 07:37:33;;;;;;;4.18;1.40;;;;;;;13.13;68.17;100723.25;5072435;28;20488;-65
2023/05/24 07:39:58;;;;;;;2.10;1.42;;;;;;;12.99;67.92;100716.81;5072094;28;20119;-65
2023/05/24 07:42:24;;;;;;;3.00;1.45;;;;;;;12.73;69.01;100727.03;5072303;28;20131;-64
2023/05/24 07:44:49;;;;;;;3.40;1.65;;;;;;;12.63;67.78;100721.03;5072396;28;20044;-65
2023/05/24 07:47:15;;;;;;;2.25;1.48;;;;;;;12.78;69.42;100730.00;5071054;28;20150;-66
2023/05/24 07:49:41;;;;;;;6.32;2.08;;;;;;;12.92;67.78;100729.25;5072029;28;20036;-66
2023/05/24 07:52:06;;;;;;;3.40;1.48;;;;;;;12.84;68.16;100728.44;5072229;28;20025;-65
2023/05/24 07:54:31;;;;;;;1.75;1.20;;;;;;;12.85;68.18;100730.97;5072255;28;20051;-66
2023/05/24 07:56:57;;;;;;;3.45;1.63;;;;;;;12.83;66.63;100732.97;5071884;28;20417;-66
2023/05/24 07:59:22;;;;;;;2.55;1.35;;;;;;;13.15;66.43;100731.91;5071797;28;20485;-66
2023/05/24 08:01:48;;;;;;;3.58;1.80;;;;;;;13.23;64.78;100742.59;5072066;28;20050;-65
2023/05/24 08:04:14;;;;;;;4.35;1.38;;;;;;;13.21;65.25;100736.59;5072131;28;20036;-65
2023/05/24 08:06:39;;;;;;;2.72;1.45;;;;;;;13.10;65.30;100733.47;5071998;28;20039;-66
2023/05/24 08:09:06;;;;;;;5.97;2.10;;;;;;;13.33;64.75;100734.34;5071802;28;20044;-64
2023/05/24 08:11:31;;;;;;;3.15;1.75;;;;;;;13.34;63.95;100730.63;5072058;28;20132;-68
2023/05/24 08:13:57;;;;;;;5.10;1.63;;;;;;;13.57;63.58;100733.31;5070908;28;20119;-66
2023/05/24 08:16:22;;;;;;;3.03;1.30;;;;;;;13.63;62.89;100729.91;5072067;28;20112;-66
2023/05/24 08:18:48;;;;;;;4.25;1.70;;;;;;;14.00;60.78;100725.50;5070461;28;20040;-66
2023/05/24 08:21:13;;;;;;;3.30;1.80;;;;;;;14.01;61.00;100730.66;5071636;28;20045;-66
2023/05/24 08:23:39;;;;;;;4.78;1.60;;;;;;;13.79;59.10;100731.59;5071896;28;20044;-65
2023/05/24 08:26:05;;;;;;;3.55;1.80;;;;;;;13.65;59.49;100733.22;5071830;28;20040;-66
2023/05/24 08:28:30;;;;;;;2.25;1.30;;;;;;;13.90;59.72;100731.16;5071622;28;20044;-66
2023/05/24 08:30:57;;;;;;;3.05;1.58;;;;;;;13.71;58.33;100731.66;5071884;28;20036;-65
2023/05/24 08:33:23;;;;;;;3.40;1.53;;;;;;;13.70;59.11;100735.38;5072601;28;20043;-66
2023/05/24 08:35:50;;;;;;;3.72;1.50;;;;;;;13.82;58.10;100734.75;5080424;28;20111;-66
2023/05/24 08:38:15;;;;;;;3.33;1.57;;;;;;;14.05;57.38;100729.31;5081112;28;20043;-65
2023/05/24 08:40:41;;;;;;;3.50;1.35;;;;;;;14.03;56.68;100727.84;5077952;28;20033;-65
2023/05/24 08:43:10;;;;;;;3.53;1.10;;;;;;;13.92;57.45;100731.78;5080684;28;20028;-67
2023/05/24 08:45:37;;;;;;;2.95;1.42;;;;;;;13.87;56.75;100730.66;5081264;28;20547;-65
2023/05/24 08:48:04;;;;;;;2.10;1.48;;;;;;;13.89;55.48;100731.31;5079540;28;20086;-66
2023/05/24 08:50:31;;;;;;;3.15;1.25;;;;;;;14.07;55.44;100740.66;5080233;28;20090;-65
2023/05/24 08:52:58;;;;;;;2.42;1.45;;;;;;;14.10;55.67;100736.78;5071601;28;20033;-65
2023/05/24 08:55:24;;;;;;;6.80;1.50;;;;;;;14.58;56.02;100731.88;5071354;28;20039;-65
2023/05/24 08:57:50;;;;;;;3.13;1.50;;;;;;;14.67;53.71;100728.09;5071562;28;20483;-66
2023/05/24 09:00:16;;;;;;;2.17;1.25;;;;;;;14.66;54.69;100737.13;5071089;28;20045;-65
2023/05/24 09:02:44;;;;;;;5.78;1.60;;;;;;;14.69;52.86;100717.19;5071500;28;20397;-65
2023/05/24 09:05:13;;;;;;;3.78;1.20;;;;;;;15.00;52.23;100720.41;5071378;28;20386;-64
2023/05/24 09:07:39;;;;;;;6.40;1.95;;;;;;;15.21;50.63;100722.28;5072642;28;20037;-65
2023/05/24 09:10:07;;;;;;;6.38;1.70;;;;;;;15.17;50.75;100720.97;5074878;28;20044;-65
2023/05/24 09:12:35;;;;;;;3.90;1.33;;;;;;;14.69;50.89;100725.22;5075062;28;20025;-65
2023/05/24 09:15:01;;;;;;;;;;;;;;;15.04;51.02;100718.16;5075492;28;20040;-65
2023/05/24 09:17:28;;;;;;;2.63;1.30;;;;;;;15.18;50.40;100722.63;5074938;28;19919;-65
2023/05/24 09:19:53;;;;;;;2.63;1.38;;;;;;;15.01;49.80;100722.06;5074639;28;20036;-65
2023/05/24 09:22:24;;;;;;;3.75;1.80;;;;;;;15.07;49.99;100713.25;5074796;28;20039;-65
2023/05/24 09:24:51;;;;;;;4.32;1.42;;;;;;;14.91;50.60;100725.06;5074940;28;20044;-65
2023/05/24 09:27:21;;;;;;;2.38;1.10;;;;;;;14.95;50.65;100725.50;5074908;28;20095;-65
2023/05/24 09:29:48;;;;;;;8.02;1.40;;;;;;;14.95;51.04;100728.19;5074476;28;20044;-66
2023/05/24 09:32:17;;;;;;;5.55;1.30;;;;;;;15.21;50.18;100735.69;5074933;28;20445;-65
2023/05/24 09:34:46;;;;;;;6.55;2.00;;;;;;;15.36;50.31;100732.94;5074644;28;20066;-65
2023/05/24 09:37:15;;;;;;;2.00;1.00;;;;;;;15.63;49.53;100729.47;5074667;28;20206;-65
2023/05/24 09:39:46;;;;;;;4.15;1.88;;;;;;;15.86;50.53;100733.78;5074322;28;20040;-65
2023/05/24 09:42:25;;;;;;;3.70;1.45;;;;;;;16.20;48.42;100732.97;5074572;28;20075;-66
2023/05/24 09:45:07;;;;;;;6.45;1.88;;;;;;;16.22;47.14;100730.91;5074539;28;20044;-65
2023/05/24 09:47:34;;;;;;;1.88;1.20;;;;;;;16.69;48.32;100724.72;5074406;28;20558;-65
2023/05/24 09:50:01;;;;;;;3.67;1.63;;;;;;;17.15;46.35;100717.81;5074164;28;20075;-65
2023/05/24 09:52:27;;;;;;;1.73;1.40;;;;;;;17.32;44.28;100716.38;5074411;28;20388;-66
2023/05/24 09:54:52;;;;;;;5.57;1.40;;;;;;;17.24;44.63;100713.91;5074417;28;20051;-65
2023/05/24 09:57:21;;;;;;;4.30;1.90;;;;;;;17.43;44.40;100713.09;5074275;28;20052;-65
2023/05/24 09:59:47;;;;;;;2.17;1.58;;;;;;;17.96;46.26;100715.78;5072741;28;20489;-65
2023/05/24 10:02:12;;;;;;;5.82;2.28;;;;;;;18.40;41.98;100704.25;5074309;28;20029;-65
2023/05/24 10:04:38;;;;;;;3.60;1.55;;;;;;;18.32;40.03;100714.41;5074222;28;20039;-65
2023/05/24 10:07:06;;;;;;;3.05;1.45;;;;;;;18.54;41.14;100706.88;5074019;28;20066;-65
2023/05/24 10:09:34;;;;;;;4.15;1.63;;;;;;;18.77;38.82;100700.97;5073804;28;20043;-66
2023/05/24 10:12:06;;;;;;;2.22;1.13;;;;;;;19.14;39.39;100702.84;5072735;28;20387;-64
2023/05/24 10:14:36;;;;;;;4.13;1.60;;;;;;;19.32;38.95;100693.16;5074127;28;20119;-66
2023/05/24 10:17:06;;;;;;;5.63;1.50;;;;;;;19.40;39.11;100698.28;5074001;28;20033;-64
2023/05/24 10:19:35;;;;;;;3.25;1.38;;;;;;;19.70;38.68;100706.59;5073548;28;20024;-65
2023/05/24 10:22:06;;;;;;;3.70;1.50;;;;;;;19.92;38.69;100701.59;5073794;28;20036;-65
2023/05/24 10:24:38;;;;;;;3.97;1.40;;;;;;;20.29;37.75;100699.72;5074015;28;20032;-66
2023/05/24 10:27:08;;;;;;;2.88;1.40;;;;;;;19.60;36.20;100690.84;5073775;28;20489;-67
2023/05/24 10:29:45;;;;;;;4.28;1.20;;;;;;;19.36;40.13;100697.88;5073667;28;20047;-66
2023/05/24 10:32:14;;;;;;;4.13;1.65;;;;;;;19.94;38.85;100694.06;5073639;28;20083;-66
2023/05/24 10:34:41;;;;;;;3.80;1.40;;;;;;;19.89;38.73;100683.13;5073637;28;20090;-64
2023/05/24 10:37:08;;;;;;;6.88;1.40;;;;;;;20.32;37.39;100678.44;5073582;28;20477;-64
2023/05/24 10:39:34;;;;;;;4.97;1.52;;;;;;;20.92;36.70;100676.84;5073318;28;20051;-64
2023/05/24 10:42:06;;;;;;;6.03;1.52;;;;;;;20.97;37.03;100671.56;5073555;28;20033;-64
2023/05/24 10:44:32;;;;;;;3.22;1.33;;;;;;;21.08;35.11;100668.06;5073584;28;20119;-65
2023/05/24 10:47:08;;;;;;;3.33;1.25;;;;;;;21.56;36.38;100667.09;5073275;28;20031;-65
2023/05/24 10:49:35;;;;;;;3.53;1.40;;;;;;;21.94;34.31;100661.19;5073139;28;20110;-65
2023/05/24 10:52:01;;;;;;;4.07;1.45;;;;;;;22.00;37.01;100662.13;5073322;28;20041;-65
2023/05/24 10:54:27;;;;;;;3.05;1.27;;;;;;;21.74;32.76;100661.56;5073261;28;20041;-65
2023/05/24 10:56:52;;;;;;;3.25;1.40;;;;;;;21.21;32.96;100659.75;5071783;28;20044;-65
2023/05/24 10:59:38;;;;;;;3.13;1.35;;;;;;;21.54;32.75;100663.81;5072719;28;20033;-64
2023/05/24 11:02:12;;;;;;;3.13;1.50;;;;;;;21.79;33.36;100661.69;5073307;28;20036;-64
2023/05/24 11:04:39;;;;;;;4.18;1.20;;;;;;;22.44;33.55;100661.44;5072985;28;20051;-65
2023/05/24 11:07:10;;;;;;;4.88;1.30;;;;;;;22.33;32.45;100654.16;5072751;28;20042;-65
2023/05/24 11:09:44;;;;;;;2.78;1.17;;;;;;;23.07;31.66;100656.91;5072733;28;20036;-65
2023/05/24 11:12:16;;;;;;;2.85;1.27;;;;;;;22.58;31.86;100653.84;5072759;28;20048;-66
2023/05/24 11:14:48;;;;;;;3.20;1.25;;;;;;;23.20;30.12;100653.06;5072896;28;20066;-65
2023/05/24 11:17:13;;;;;;;3.22;1.40;;;;;;;23.17;29.86;100654.38;5072645;28;20132;-65
2023/05/24 11:19:48;;;;;;;3.83;1.42;;;;;;;23.54;30.32;100654.72;5072415;28;20111;-66
2023/05/24 11:22:16;;;;;;;3.05;1.20;;;;;;;23.50;28.77;100648.09;5072469;28;20036;-65
2023/05/24 11:24:42;;;;;;;2.63;1.20;;;;;;;23.28;29.47;100649.94;5072671;28;20121;-66
2023/05/24 11:27:10;;;;;;;3.20;1.30;;;;;;;23.37;29.57;100644.91;5072496;28;20119;-65
2023/05/24 11:29:46;;;;;;;3.15;1.25;;;;;;;23.39;30.34;100645.47;5072066;28;20078;-65
2023/05/24 11:32:16;;;;;;;3.78;1.45;;;;;;;23.83;29.75;100641.00;5072255;28;20044;-65
2023/05/24 11:34:44;;;;;;;3.08;1.55;;;;;;;23.96;29.66;100646.06;5072357;28;20489;-64
2023/05/24 11:37:10;;;;;;;4.45;1.83;;;;;;;24.00;30.18;100644.50;5072215;28;20079;-65
2023/05/24 11:39:37;;;;;;;3.70;1.20;;;;;;;23.32;31.05;100642.09;5072032;28;20054;-65
2023/05/24 11:42:08;;;;;;;3.35;1.40;;;;;;;22.98;31.37;100640.22;5072329;28;20029;-65
2023/05/24 11:44:38;;;;;;;4.78;1.40;;;;;;;23.56;31.29;100643.56;5072289;28;20044;-65
2023/05/24 11:47:05;;;;;;;2.35;1.27;;;;;;;23.85;30.93;100641.56;5072233;28;20039;-65
2023/05/24 11:49:30;;;;;;;3.15;1.48;;;;;;;24.04;31.44;100642.91;5071885;28;20043;-65
2023/05/24 11:51:57;;;;;;;4.03;1.48;;;;;;;23.48;31.35;100633.94;5072119;28;20044;-64
2023/05/24 11:54:24;;;;;;;3.70;1.35;;;;;;;23.25;32.03;100643.09;5072309;28;20040;-67
2023/05/24 11:56:52;;;;;;;5.53;1.90;;;;;;;21.65;32.29;100638.59;5072282;28;20486;-65
2023/05/24 11:59:27;;;;;;;5.47;1.88;;;;;;;22.27;32.84;100635.31;5071773;28;20044;-67
2023/05/24 12:02:00;;;;;;;3.88;1.50;;;;;;;23.32;32.69;100626.63;5070826;28;20033;-66
2023/05/24 12:04:27;;;;;;;4.00;1.63;;;;;;;22.69;31.99;100614.97;5072040;28;20037;-66
2023/05/24 12:06:53;;;;;;;5.07;1.60;;;;;;;22.59;32.54;100622.09;5071984;28;20397;-64
2023/05/24 12:09:19;;;;;;;4.70;1.80;;;;;;;22.45;32.02;100625.09;5071713;28;20495;-65
2023/05/24 12:11:49;;;;;;;2.90;1.42;;;;;;;23.19;32.30;100622.34;5071968;28;20123;-65
2023/05/24 12:14:21;;;;;;;4.30;1.50;;;;;;;22.69;33.42;100609.53;5071941;28;20040;-64
2023/05/24 12:16:48;;;;;;;3.35;1.75;;;;;;;23.30;32.18;100615.19;5072156;28;20059;-65
2023/05/24 12:19:21;;;;;;;4.32;1.60;;;;;;;23.96;32.12;100612.59;5071731;28;20062;-66
2023/05/24 12:21:48;;;;;;;3.58;1.55;;;;;;;24.24;30.66;100615.13;5071865;28;20064;-66
2023/05/24 12:24:15;;;;;;;6.50;1.48;;;;;;;23.58;31.26;100608.78;5071921;28;20036;-65
2023/05/24 12:26:42;;;;;;;6.10;1.40;;;;;;;24.36;31.12;100624.00;5071797;28;20516;-63
2023/05/24 12:29:11;;;;;;;2.75;1.48;;;;;;;23.83;31.14;100622.78;5071441;28;20481;-65
2023/05/24 12:31:40;;;;;;;3.28;1.80;;;;;;;22.50;32.35;100620.84;5071743;28;20040;-65
2023/05/24 12:34:10;;;;;;;2.58;1.48;;;;;;;23.78;30.71;100619.16;5070557;28;20419;-65
2023/05/24 12:36:37;;;;;;;6.03;1.52;;;;;;;23.77;32.08;100612.91;5083676;28;20044;-65
2023/05/24 12:39:29;;;;;;;4.05;1.48;;;;;;;24.41;32.04;100601.47;5091583;28;20036;-64
2023/05/24 12:41:56;;;;;;;4.80;1.73;;;;;;;23.68;31.40;100592.66;5091906;28;20032;-66
2023/05/24 12:44:34;;;;;;;3.17;1.73;;;;;;;24.17;30.69;100605.50;5095995;28;20039;-66
2023/05/24 12:47:00;;;;;;;2.83;1.15;;;;;;;24.30;29.99;100605.94;5095815;28;20499;-64
2023/05/24 12:49:26;;;;;;;8.60;1.67;;;;;;;24.67;31.28;100599.81;5095718;28;20039;-65
2023/05/24 12:51:53;;;;;;;3.22;1.70;;;;;;;24.59;29.65;100590.22;5095726;28;20131;-65
2023/05/24 12:54:22;;;;;;;3.33;1.25;;;;;;;24.72;30.51;100588.16;5095786;28;20036;-66
2023/05/24 12:56:48;;;;;;;2.80;1.70;;;;;;;25.30;28.95;100581.84;5095717;28;20036;-64
2023/05/24 12:59:13;;;;;;;3.85;1.70;;;;;;;25.07;29.16;100593.91;5095346;28;20042;-65
2023/05/24 13:01:39;;;;;;;3.28;1.75;;;;;;;25.04;28.84;100588.13;5095610;28;20032;-66
2023/05/24 13:04:04;;;;;;;2.95;1.27;;;;;;;24.55;29.30;100582.81;5095519;28;20036;-65
2023/05/24 13:06:30;;;;;;;6.55;1.85;;;;;;;23.89;29.98;100598.38;5095860;28;20054;-65
2023/05/24 13:08:55;;;;;;;4.47;1.83;;;;;;;24.32;29.90;100583.88;5095402;28;20051;-63
2023/05/24 13:11:23;;;;;;;5.10;1.38;;;;;;;24.61;29.43;100589.94;5086880;28;20036;-66
2023/05/24 13:13:49;;;;;;;4.72;1.30;;;;;;;24.44;29.17;100591.94;5095389;28;20044;-66
2023/05/24 13:16:15;;;;;;;3.55;1.42;;;;;;;23.04;30.57;100580.53;5095085;28;20040;-66
2023/05/24 13:18:40;;;;;;;4.75;2.20;;;;;;;21.98;31.48;100578.28;5092815;28;20060;-65
2023/05/24 13:21:05;;;;;;;3.45;1.50;;;;;;;21.80;33.31;100586.59;5085531;28;20389;-65
2023/05/24 13:23:33;;;;;;;4.15;1.63;;;;;;;21.86;33.80;100582.94;5081474;28;20041;-66
2023/05/24 13:25:58;;;;;;;;;;;;;;;21.80;33.55;100568.44;5074622;28;20047;-65
2023/05/24 13:28:24;;;;;;;4.57;1.40;;;;;;;21.34;34.63;100570.16;5074143;28;19920;-66
2023/05/24 13:30:49;;;;;;;2.13;1.10;;;;;;;20.19;34.44;100565.00;5074706;28;20047;-66
2023/05/24 13:33:15;;;;;;;3.83;1.60;;;;;;;20.46;34.39;100559.25;5074775;28;20400;-66
2023/05/24 13:35:40;;;;;;;4.47;1.52;;;;;;;20.95;34.38;100563.50;5074631;28;20485;-65
2023/05/24 13:38:07;;;;;;;5.07;1.85;;;;;;;20.53;34.74;100566.22;5074653;28;20051;-66
2023/05/24 13:40:33;;;;;;;5.38;1.75;;;;;;;20.67;34.51;100564.16;5074468;28;20043;-66
2023/05/24 13:42:58;;;;;;;3.08;1.50;;;;;;;20.55;34.44;100555.19;5074592;28;20032;-65
2023/05/24 13:45:24;;;;;;;4.57;1.40;;;;;;;20.42;34.50;100568.88;5074545;28;20523;-66
2023/05/24 13:47:50;;;;;;;3.30;1.40;;;;;;;19.34;35.25;100564.13;5074575;28;20036;-66
2023/05/24 13:50:16;;;;;;;4.78;1.50;;;;;;;19.16;34.43;100562.19;5074218;28;20067;-66
2023/05/24 13:52:42;;;;;;;3.67;1.65;;;;;;;19.55;35.13;100560.97;5074455;28;20033;-66
2023/05/24 13:55:08;;;;;;;3.80;1.60;;;;;;;19.53;36.59;100555.81;5073952;28;20493;-65
2023/05/24 13:57:33;;;;;;;3.72;1.40;;;;;;;19.66;34.98;100556.75;5079668;28;20032;-65
2023/05/24 13:59:59;;;;;;;7.55;1.70;;;;;;;19.36;36.03;100562.84;5094296;28;20067;-66
2023/05/24 14:02:25;;;;;;;5.57;1.90;;;;;;;19.27;35.57;100560.66;5094548;28;20040;-66
2023/05/24 14:04:52;;;;;;;4.57;1.48;;;;;;;19.13;35.96;100559.97;5094329;28;20081;-66
2023/05/24 14:07:18;;;;;;;5.32;1.77;;;;;;;19.33;37.51;100559.75;5094385;28;20032;-65
2023/05/24 14:09:44;;;;;;;2.72;1.48;;;;;;;19.25;35.58;100561.72;5094122;28;20370;-66
2023/05/24 14:12:10;;;;;;;3.90;1.50;;;;;;;19.33;36.15;100566.00;5094013;28;20067;-65
2023/05/24 14:14:35;;;;;;;5.38;1.83;;;;;;;19.24;36.41;100557.38;5092954;28;20067;-66
2023/05/24 14:17:01;;;;;;;2.60;1.55;;;;;;;19.34;36.39;100556.00;5094117;28;20035;-66
2023/05/24 14:19:26;;;;;;;3.55;1.58;;;;;;;19.53;36.47;100553.09;5093469;28;20123;-66
2023/05/24 14:21:52;;;;;;;5.78;2.05;;;;;;;18.95;36.38;100558.84;5094071;28;20093;-65
2023/05/24 14:24:17;;;;;;;4.78;1.45;;;;;;;19.08;36.61;100554.38;5094098;28;20032;-67
2023/05/24 14:26:42;;;;;;;4.20;1.40;;;;;;;19.27;36.25;100555.25;5094037;28;20020;-66
2023/05/24 14:29:08;;;;;;;3.03;1.50;;;;;;;19.12;37.09;100558.31;5093921;28;20040;-64
2023/05/24 14:31:40;;;;;;;2.70;1.40;;;;;;;18.75;36.51;100555.50;5093947;28;20035;-65
2023/05/24 14:34:07;;;;;;;2.88;1.70;;;;;;;18.60;37.09;100552.25;5093950;28;20499;-66
2023/05/24 14:36:33;;;;;;;2.30;1.38;;;;;;;18.90;38.10;100558.69;5093909;28;20542;-66
2023/05/24 14:38:58;;;;;;;3.95;1.40;;;;;;;18.86;36.38;100560.19;5093551;28;20071;-66
2023/05/24 14:41:24;;;;;;;4.03;2.05;;;;;;;18.98;36.58;100553.03;5093742;28;20040;-66
2023/05/24 14:43:49;;;;;;;2.80;1.73;;;;;;;19.10;36.22;100561.22;5093686;28;20036;-64
2023/05/24 14:46:15;;;;;;;3.90;1.38;;;;;;;18.59;36.51;100558.72;5093594;28;20032;-66
2023/05/24 14:48:40;;;;;;;6.95;1.83;;;;;;;18.45;36.39;100557.94;5092004;28;20032;-65
2023/05/24 14:51:06;;;;;;;2.60;1.42;;;;;;;18.66;37.02;100549.53;5093571;28;20434;-66
2023/05/24 14:53:31;;;;;;;3.22;1.48;;;;;;;18.81;36.35;100551.91;5092397;28;20546;-66
2023/05/24 14:55:57;;;;;;;5.30;1.55;;;;;;;18.67;36.42;100553.91;5092052;28;20400;-67
2023/05/24 14:58:22;;;;;;;1.95;1.08;;;;;;;18.90;36.00;100547.06;5093111;28;20408;-67
2023/05/24 15:00:48;;;;;;;5.93;1.55;;;;;;;18.86;35.74;100556.66;5093313;28;20047;-66
2023/05/24 15:03:14;;;;;;;4.63;1.85;;;;;;;18.27;36.37;100549.78;5093342;28;20085;-66
2023/05/24 15:05:41;;;;;;;5.55;1.55;;;;;;;18.45;36.62;100552.53;5092330;28;20126;-66
2023/05/24 15:08:07;;;;;;;5.80;1.98;;;;;;;18.34;35.95;100551.38;5093303;28;20569;-67
2023/05/24 15:10:32;;;;;;;5.05;1.95;;;;;;;18.51;36.30;100562.47;5092740;28;20119;-66
2023/05/24 15:12:58;;;;;;;3.92;1.60;;;;;;;18.14;35.80;100554.19;5093136;28;20500;-66
2023/05/24 15:15:23;;;;;;;10.93;2.03;;;;;;;18.09;36.07;100548.63;5092926;28;20036;-65
2023/05/24 15:17:49;;;;;;;5.63;1.92;;;;;;;17.86;37.29;100551.00;5092860;28;20115;-66
2023/05/24 15:20:14;;;;;;;5.07;1.75;;;;;;;18.03;37.12;100543.25;5092420;28;20040;-67
2023/05/24 15:22:40;;;;;;;6.03;1.35;;;;;;;17.82;36.91;100555.16;5092801;28;20039;-67
2023/05/24 15:25:07;;;;;;;1.75;1.27;;;;;;;18.07;37.21;100552.59;5092693;28;20032;-66
2023/05/24 15:27:33;;;;;;;2.85;1.55;;;;;;;18.06;36.94;100554.44;5092792;28;20492;-67
2023/05/24 15:29:58;;;;;;;7.25;1.80;;;;;;;18.27;37.05;100547.09;5092557;28;20044;-67
2023/05/24 15:32:26;;;;;;;2.85;1.48;;;;;;;18.40;37.28;100538.91;5092650;28;20443;-66
2023/05/24 15:34:52;;;;;;;4.32;1.92;;;;;;;18.33;36.53;100543.53;5092802;28;20040;-66
2023/05/24 15:37:19;;;;;;;5.80;2.00;;;;;;;18.32;36.80;100541.84;5092676;28;20054;-65
2023/05/24 15:39:44;;;;;;;2.70;1.65;;;;;;;18.25;37.32;100547.28;5092553;28;20039;-66
2023/05/24 15:42:10;;;;;;;3.35;1.63;;;;;;;18.29;36.45;100534.19;5092683;28;20089;-66
2023/05/24 15:44:35;;;;;;;2.50;1.42;;;;;;;18.40;36.12;100549.69;5092558;28;20036;-67
2023/05/24 15:47:01;;;;;;;3.80;1.58;;;;;;;18.01;36.74;100550.75;5092499;28;20036;-67